sensor_id;sensor_type;location;lat;lon;timestamp;pressure;altitude;pressure_sealevel;temperature;humidity
29163;BME280;20331;53.144;8.208;2022-10-16T00:01:40;100739.16;;;13.72;100.00
29163;BME280;20331;53.144;8.208;2022-10-16T00:12:02;100755.00;;;13.60;100.00
29163;BME280;20331;53.144;8.208;2022-10-16T00:22:25;100747.50;;;13.55;100.00
29163;BME280;20331;53.144;8.208;2022-10-16T00:32:47;100750.00;;;13.57;100.00
29163;BME280;20331;53.144;8.208;2022-10-16T00:43:13;100765.47;;;13.49;100.00
29163;BME280;20331;53.144;8.208;2022-10-16T00:53:34;100776.06;;;13.47;100.00
29163;BME280;20331;53.144;8.208;2022-10-16T01:03:56;100764.50;;;13.28;100.00
29163;BME280;20331;53.144;8.208;2022-10-16T01:14:22;100745.94;;;13.20;100.00
29163;BME280;20331;53.144;8.208;2022-10-16T01:24:48;100757.00;;;13.35;100.00
29163;BME280;20331;53.144;8.208;2022-10-16T01:45:32;100756.19;;;13.23;100.00
29163;BME280;20331;53.144;8.208;2022-10-16T01:55:54;100767.47;;;13.35;100.00
29163;BME280;20331;53.144;8.208;2022-10-16T02:06:16;100770.72;;;13.38;100.00
29163;BME280;20331;53.144;8.208;2022-10-16T02:16:39;100770.09;;;13.35;100.00
29163;BME280;20331;53.144;8.208;2022-10-16T02:27:03;100770.94;;;13.46;100.00
29163;BME280;20331;53.144;8.208;2022-10-16T02:37:26;100757.38;;;13.41;100.00
29163;BME280;20331;53.144;8.208;2022-10-16T02:47:48;100756.06;;;13.25;100.00
29163;BME280;20331;53.144;8.208;2022-10-16T02:58:09;100764.72;;;13.25;100.00
29163;BME280;20331;53.144;8.208;2022-10-16T03:08:31;100773.16;;;13.18;100.00
29163;BME280;20331;53.144;8.208;2022-10-16T03:18:52;100769.00;;;13.15;100.00
29163;BME280;20331;53.144;8.208;2022-10-16T03:29:14;100769.97;;;13.25;100.00
29163;BME280;20331;53.144;8.208;2022-10-16T03:39:35;100767.38;;;13.36;100.00
29163;BME280;20331;53.144;8.208;2022-10-16T03:49:56;100786.19;;;13.41;100.00
29163;BME280;20331;53.144;8.208;2022-10-16T04:00:18;100794.97;;;13.40;100.00
29163;BME280;20331;53.144;8.208;2022-10-16T04:10:39;100812.50;;;13.40;100.00
29163;BME280;20331;53.144;8.208;2022-10-16T04:21:04;100817.38;;;13.55;100.00
29163;BME280;20331;53.144;8.208;2022-10-16T04:31:26;100812.41;;;13.63;100.00
29163;BME280;20331;53.144;8.208;2022-10-16T04:41:47;100807.38;;;13.60;100.00
29163;BME280;20331;53.144;8.208;2022-10-16T04:52:08;100829.28;;;13.48;100.00
29163;BME280;20331;53.144;8.208;2022-10-16T05:02:30;100846.66;;;13.49;100.00
29163;BME280;20331;53.144;8.208;2022-10-16T05:12:52;100847.84;;;13.56;100.00
29163;BME280;20331;53.144;8.208;2022-10-16T05:23:13;100844.28;;;13.57;100.00
29163;BME280;20331;53.144;8.208;2022-10-16T05:33:35;100848.47;;;13.59;100.00
29163;BME280;20331;53.144;8.208;2022-10-16T05:43:56;100854.75;;;13.57;100.00
29163;BME280;20331;53.144;8.208;2022-10-16T05:54:18;100881.47;;;13.62;100.00
29163;BME280;20331;53.144;8.208;2022-10-16T06:04:39;100898.00;;;13.62;100.00
29163;BME280;20331;53.144;8.208;2022-10-16T06:15:01;100895.13;;;13.44;100.00
29163;BME280;20331;53.144;8.208;2022-10-16T06:25:23;100901.19;;;13.55;100.00
29163;BME280;20331;53.144;8.208;2022-10-16T06:35:44;100916.69;;;13.58;100.00
29163;BME280;20331;53.144;8.208;2022-10-16T06:46:07;100927.66;;;13.63;100.00
29163;BME280;20331;53.144;8.208;2022-10-16T06:56:29;100945.50;;;13.58;100.00
29163;BME280;20331;53.144;8.208;2022-10-16T07:06:52;100962.09;;;13.69;100.00
29163;BME280;20331;53.144;8.208;2022-10-16T07:17:13;100973.66;;;13.78;100.00
29163;BME280;20331;53.144;8.208;2022-10-16T07:27:35;100983.22;;;13.90;100.00
29163;BME280;20331;53.144;8.208;2022-10-16T07:38:01;101000.75;;;14.00;100.00
29163;BME280;20331;53.144;8.208;2022-10-16T07:48:23;101032.63;;;14.18;100.00
29163;BME280;20331;53.144;8.208;2022-10-16T07:58:45;101035.16;;;14.30;100.00
29163;BME280;20331;53.144;8.208;2022-10-16T08:09:07;101062.50;;;14.49;100.00
29163;BME280;20331;53.144;8.208;2022-10-16T08:19:28;101069.88;;;14.88;100.00
29163;BME280;20331;53.144;8.208;2022-10-16T08:29:51;101065.34;;;15.12;100.00
29163;BME280;20331;53.144;8.208;2022-10-16T08:40:46;101069.84;;;15.21;100.00
29163;BME280;20331;53.144;8.208;2022-10-16T08:51:01;101082.00;;;15.55;99.74
29163;BME280;20331;53.144;8.208;2022-10-16T09:01:22;101095.50;;;15.40;98.85
29163;BME280;20331;53.144;8.208;2022-10-16T09:22:12;101123.94;;;15.45;98.95
29163;BME280;20331;53.144;8.208;2022-10-16T09:32:35;101134.66;;;15.64;97.96
29163;BME280;20331;53.144;8.208;2022-10-16T09:42:58;101147.25;;;15.81;96.66
29163;BME280;20331;53.144;8.208;2022-10-16T09:53:22;101168.56;;;16.10;93.36
29163;BME280;20331;53.144;8.208;2022-10-16T10:03:43;101182.09;;;16.37;91.47
29163;BME280;20331;53.144;8.208;2022-10-16T10:14:13;101182.13;;;16.57;90.05
29163;BME280;20331;53.144;8.208;2022-10-16T10:24:36;101199.06;;;16.43;88.98
29163;BME280;20331;53.144;8.208;2022-10-16T10:35:06;101222.44;;;16.57;86.92
29163;BME280;20331;53.144;8.208;2022-10-16T10:45:38;101221.19;;;16.72;86.48
29163;BME280;20331;53.144;8.208;2022-10-16T11:06:40;101237.25;;;17.20;82.15
29163;BME280;20331;53.144;8.208;2022-10-16T11:17:06;101241.13;;;17.36;80.24
29163;BME280;20331;53.144;8.208;2022-10-16T11:27:37;101254.03;;;17.39;77.72
29163;BME280;20331;53.144;8.208;2022-10-16T11:37:59;101268.63;;;17.73;74.83
29163;BME280;20331;53.144;8.208;2022-10-16T12:09:19;101311.97;;;17.89;67.61
29163;BME280;20331;53.144;8.208;2022-10-16T12:19:42;101322.56;;;17.99;69.00
29163;BME280;20331;53.144;8.208;2022-10-16T12:30:04;101347.88;;;18.11;68.48
29163;BME280;20331;53.144;8.208;2022-10-16T12:50:48;101371.53;;;17.62;68.54
29163;BME280;20331;53.144;8.208;2022-10-16T13:01:33;101361.72;;;17.94;65.54
29163;BME280;20331;53.144;8.208;2022-10-16T13:22:33;101387.03;;;18.06;65.80
29163;BME280;20331;53.144;8.208;2022-10-16T13:33:01;101400.06;;;17.98;66.29
29163;BME280;20331;53.144;8.208;2022-10-16T13:43:25;101414.66;;;18.02;65.03
29163;BME280;20331;53.144;8.208;2022-10-16T13:53:47;101433.16;;;18.02;67.16
29163;BME280;20331;53.144;8.208;2022-10-16T14:04:09;101443.41;;;18.05;66.41
29163;BME280;20331;53.144;8.208;2022-10-16T14:14:34;101453.72;;;18.08;66.72
29163;BME280;20331;53.144;8.208;2022-10-16T14:24:56;101475.28;;;18.13;65.78
29163;BME280;20331;53.144;8.208;2022-10-16T14:35:56;101468.91;;;17.95;65.43
29163;BME280;20331;53.144;8.208;2022-10-16T14:46:12;101468.16;;;18.04;65.37
29163;BME280;20331;53.144;8.208;2022-10-16T14:56:49;101478.59;;;17.85;65.93
29163;BME280;20331;53.144;8.208;2022-10-16T15:07:11;101500.44;;;17.76;67.12
29163;BME280;20331;53.144;8.208;2022-10-16T15:17:32;101499.59;;;17.55;70.97
29163;BME280;20331;53.144;8.208;2022-10-16T15:27:54;101520.47;;;17.47;71.70
29163;BME280;20331;53.144;8.208;2022-10-16T15:38:16;101522.44;;;17.23;73.56
29163;BME280;20331;53.144;8.208;2022-10-16T15:48:38;101513.06;;;16.88;76.55
29163;BME280;20331;53.144;8.208;2022-10-16T15:58:59;101524.69;;;16.52;81.77
29163;BME280;20331;53.144;8.208;2022-10-16T16:09:21;101535.66;;;16.25;83.50
29163;BME280;20331;53.144;8.208;2022-10-16T16:19:42;101543.03;;;15.98;85.65
29163;BME280;20331;53.144;8.208;2022-10-16T16:30:05;101557.03;;;15.75;86.37
29163;BME280;20331;53.144;8.208;2022-10-16T16:40:28;101575.28;;;15.42;90.20
29163;BME280;20331;53.144;8.208;2022-10-16T16:50:49;101591.06;;;15.42;86.90
29163;BME280;20331;53.144;8.208;2022-10-16T17:01:10;101599.91;;;15.16;91.33
29163;BME280;20331;53.144;8.208;2022-10-16T17:11:41;101613.09;;;15.04;93.51
29163;BME280;20331;53.144;8.208;2022-10-16T17:22:04;101627.28;;;14.76;92.78
29163;BME280;20331;53.144;8.208;2022-10-16T17:32:25;101636.31;;;14.72;93.11
29163;BME280;20331;53.144;8.208;2022-10-16T17:42:47;101644.28;;;14.58;96.13
29163;BME280;20331;53.144;8.208;2022-10-16T17:53:09;101660.88;;;14.46;96.51
29163;BME280;20331;53.144;8.208;2022-10-16T18:03:30;101663.59;;;14.33;97.57
29163;BME280;20331;53.144;8.208;2022-10-16T18:13:52;101677.84;;;14.29;98.03
29163;BME280;20331;53.144;8.208;2022-10-16T18:24:14;101686.44;;;14.18;98.71
29163;BME280;20331;53.144;8.208;2022-10-16T18:34:36;101685.03;;;13.99;100.00
29163;BME280;20331;53.144;8.208;2022-10-16T18:44:58;101705.06;;;13.87;100.00
29163;BME280;20331;53.144;8.208;2022-10-16T18:55:19;101712.47;;;13.81;100.00
29163;BME280;20331;53.144;8.208;2022-10-16T19:05:41;101729.03;;;13.81;100.00
29163;BME280;20331;53.144;8.208;2022-10-16T19:16:14;101711.91;;;13.76;100.00
29163;BME280;20331;53.144;8.208;2022-10-16T19:26:41;101701.25;;;13.79;100.00
29163;BME280;20331;53.144;8.208;2022-10-16T19:37:03;101701.72;;;13.71;100.00
29163;BME280;20331;53.144;8.208;2022-10-16T19:47:24;101714.00;;;13.57;100.00
29163;BME280;20331;53.144;8.208;2022-10-16T19:57:46;101728.75;;;13.72;100.00
29163;BME280;20331;53.144;8.208;2022-10-16T20:08:07;101739.06;;;13.75;100.00
29163;BME280;20331;53.144;8.208;2022-10-16T20:18:29;101758.97;;;13.77;100.00
29163;BME280;20331;53.144;8.208;2022-10-16T20:28:51;101764.31;;;13.76;100.00
29163;BME280;20331;53.144;8.208;2022-10-16T20:39:13;101753.09;;;13.74;100.00
29163;BME280;20331;53.144;8.208;2022-10-16T20:49:34;101770.69;;;13.72;100.00
29163;BME280;20331;53.144;8.208;2022-10-16T21:00:01;101778.47;;;13.73;100.00
29163;BME280;20331;53.144;8.208;2022-10-16T21:10:22;101775.19;;;13.70;100.00
29163;BME280;20331;53.144;8.208;2022-10-16T21:20:44;101768.34;;;13.67;100.00
29163;BME280;20331;53.144;8.208;2022-10-16T21:31:12;101758.00;;;13.52;100.00
29163;BME280;20331;53.144;8.208;2022-10-16T21:41:35;101766.22;;;13.60;100.00
29163;BME280;20331;53.144;8.208;2022-10-16T21:51:56;101758.19;;;13.49;100.00
29163;BME280;20331;53.144;8.208;2022-10-16T22:02:18;101729.38;;;13.35;100.00
29163;BME280;20331;53.144;8.208;2022-10-16T22:12:39;101724.50;;;13.29;100.00
29163;BME280;20331;53.144;8.208;2022-10-16T22:23:00;101646.69;;;12.75;100.00
29163;BME280;20331;53.144;8.208;2022-10-16T22:33:22;101618.47;;;12.66;100.00
29163;BME280;20331;53.144;8.208;2022-10-16T22:43:44;101612.97;;;12.57;100.00
29163;BME280;20331;53.144;8.208;2022-10-16T22:54:05;101589.59;;;12.54;100.00
29163;BME280;20331;53.144;8.208;2022-10-16T23:04:27;101601.56;;;12.58;100.00
29163;BME280;20331;53.144;8.208;2022-10-16T23:14:48;101585.94;;;12.56;100.00
29163;BME280;20331;53.144;8.208;2022-10-16T23:25:10;101570.41;;;12.26;100.00
29163;BME280;20331;53.144;8.208;2022-10-16T23:35:31;101542.53;;;12.40;100.00
29163;BME280;20331;53.144;8.208;2022-10-16T23:45:52;101555.13;;;12.48;100.00
29163;BME280;20331;53.144;8.208;2022-10-16T23:56:14;101557.28;;;12.55;100.00
